Time;durP1;ratioP1;P1;durP2;ratioP2;P2;SDS_P1;SDS_P2;PMS_P1;PMS_P2;Temp;Humidity;BMP_temperature;BMP_pressure;BME280_temperature;BME280_humidity;BME280_pressure;Samples;Min_cycle;Max_cycle;Signal;HPM_P1;HPM_P2
2023/12/07 00:00:13;;;;;;;44.33;23.67;;;;;;;;;;2090569;28;20029;-59
2023/12/07 00:01:13;;;;;;;47.03;24.08;;;;;;;;;;2090160;28;20044;-59
2023/12/07 00:02:14;;;;;;;41.22;21.63;;;;;;;;;;2090414;28;20484;-59
2023/12/07 00:03:15;;;;;;;45.17;24.00;;;;;;;;;;2090596;28;20047;-59
2023/12/07 00:04:17;;;;;;;44.05;22.15;;;;;;;;;;2090486;28;20053;-59
2023/12/07 00:05:17;;;;;;;47.38;23.70;;;;;;;;;;2090315;28;20045;-59
2023/12/07 00:06:18;;;;;;;46.40;23.17;;;;;;;;;;2090359;28;20068;-59
2023/12/07 00:07:19;;;;;;;40.03;20.77;;;;;;;;;;2090112;28;20477;-58
2023/12/07 00:08:20;;;;;;;47.88;24.02;;;;;;;;;;2090313;28;20040;-58
2023/12/07 00:09:20;;;;;;;46.10;21.38;;;;;;;;;;2089736;28;20036;-59
2023/12/07 00:10:21;;;;;;;45.20;21.65;;;;;;;;;;2089888;28;20029;-59
2023/12/07 00:11:23;;;;;;;46.67;21.20;;;;;;;;;;2090462;28;20048;-59
2023/12/07 00:12:23;;;;;;;42.78;19.75;;;;;;;;;;2090666;28;20048;-58
2023/12/07 00:13:24;;;;;;;49.30;22.50;;;;;;;;;;2090496;28;20079;-59
2023/12/07 00:14:25;;;;;;;50.65;24.52;;;;;;;;;;2090457;28;20060;-59
2023/12/07 00:15:25;;;;;;;45.65;21.88;;;;;;;;;;2090032;28;20401;-59
2023/12/07 00:16:26;;;;;;;43.45;21.55;;;;;;;;;;2090013;28;20039;-58
2023/12/07 00:17:27;;;;;;;48.88;23.02;;;;;;;;;;2090728;28;20060;-59
2023/12/07 00:18:28;;;;;;;48.65;22.75;;;;;;;;;;2090582;28;20048;-60
2023/12/07 00:19:28;;;;;;;51.08;23.55;;;;;;;;;;2090759;28;20033;-58
2023/12/07 00:20:29;;;;;;;50.00;23.48;;;;;;;;;;2090995;28;20064;-58
2023/12/07 00:21:30;;;;;;;46.38;21.92;;;;;;;;;;2090759;28;20029;-58
2023/12/07 00:22:31;;;;;;;50.35;24.00;;;;;;;;;;2090780;28;20032;-58
2023/12/07 00:23:31;;;;;;;48.45;25.48;;;;;;;;;;2090921;28;20037;-58
2023/12/07 00:24:32;;;;;;;50.28;24.52;;;;;;;;;;2090849;28;20045;-59
2023/12/07 00:25:34;;;;;;;47.38;22.98;;;;;;;;;;2090890;28;20485;-59
2023/12/07 00:26:34;;;;;;;51.10;22.60;;;;;;;;;;2090481;28;20409;-58
2023/12/07 00:27:35;;;;;;;48.00;21.50;;;;;;;;;;2090415;28;20029;-58
2023/12/07 00:28:36;;;;;;;47.50;23.83;;;;;;;;;;2090186;28;20067;-58
2023/12/07 00:29:37;;;;;;;54.38;23.13;;;;;;;;;;2089852;28;20082;-58
2023/12/07 00:30:38;;;;;;;50.85;20.77;;;;;;;;;;2090293;28;20056;-58
2023/12/07 00:31:38;;;;;;;54.05;24.30;;;;;;;;;;2090442;28;20516;-58
2023/12/07 00:32:43;;;;;;;54.83;25.95;;;;;;;;;;2090352;28;20025;-58
2023/12/07 00:33:45;;;;;;;53.05;21.15;;;;;;;;;;2090387;28;20040;-58
2023/12/07 00:34:46;;;;;;;53.97;24.85;;;;;;;;;;2090314;28;20159;-59
2023/12/07 00:35:47;;;;;;;54.88;25.52;;;;;;;;;;2089987;28;20049;-58
2023/12/07 00:36:48;;;;;;;56.83;24.95;;;;;;;;;;2090452;28;20048;-59
2023/12/07 00:37:48;;;;;;;52.75;25.23;;;;;;;;;;2090114;28;20033;-58
2023/12/07 00:38:49;;;;;;;56.45;26.20;;;;;;;;;;2090613;28;20033;-58
2023/12/07 00:39:50;;;;;;;57.10;24.60;;;;;;;;;;2090239;28;20041;-58
2023/12/07 00:40:51;;;;;;;50.25;22.60;;;;;;;;;;2090000;28;20465;-58
2023/12/07 00:41:52;;;;;;;52.15;23.02;;;;;;;;;;2090225;28;20370;-58
2023/12/07 00:42:53;;;;;;;57.00;24.85;;;;;;;;;;2090231;28;20048;-58
2023/12/07 00:43:53;;;;;;;53.50;24.52;;;;;;;;;;2090219;28;20040;-58
2023/12/07 00:44:55;;;;;;;51.05;25.98;;;;;;;;;;2090433;28;20032;-58
2023/12/07 00:45:57;;;;;;;51.58;24.58;;;;;;;;;;2089976;28;20056;-59
2023/12/07 00:46:58;;;;;;;48.88;24.13;;;;;;;;;;2090485;28;20029;-57
2023/12/07 00:47:59;;;;;;;51.90;24.48;;;;;;;;;;2089847;28;20044;-58
2023/12/07 00:48:59;;;;;;;55.97;25.00;;;;;;;;;;2090641;28;20452;-57
2023/12/07 00:50:00;;;;;;;58.83;25.58;;;;;;;;;;2090140;28;20491;-58
2023/12/07 00:51:01;;;;;;;51.97;24.75;;;;;;;;;;2090500;28;20033;-58
2023/12/07 00:52:02;;;;;;;62.70;27.33;;;;;;;;;;2090010;28;20025;-58
2023/12/07 00:53:03;;;;;;;54.08;24.15;;;;;;;;;;2090101;28;20482;-59
2023/12/07 00:54:03;;;;;;;57.97;24.60;;;;;;;;;;2090091;28;20048;-58
2023/12/07 00:55:04;;;;;;;58.70;27.13;;;;;;;;;;2090028;28;20045;-58
2023/12/07 00:56:05;;;;;;;54.35;22.98;;;;;;;;;;2090058;28;20041;-59
2023/12/07 00:57:06;;;;;;;47.90;24.90;;;;;;;;;;2088860;28;20037;-59
2023/12/07 00:58:07;;;;;;;58.05;26.63;;;;;;;;;;2088318;28;20045;-59
2023/12/07 00:59:08;;;;;;;54.47;24.30;;;;;;;;;;2089919;28;20052;-59
2023/12/07 01:00:10;;;;;;;58.17;28.10;;;;;;;;;;2089969;28;20389;-59
2023/12/07 01:01:10;;;;;;;57.67;27.17;;;;;;;;;;2090158;28;20036;-59
2023/12/07 01:02:11;;;;;;;55.78;25.00;;;;;;;;;;2090205;28;20040;-58
2023/12/07 01:03:12;;;;;;;55.65;24.38;;;;;;;;;;2090164;28;20045;-59
2023/12/07 01:04:13;;;;;;;55.25;23.63;;;;;;;;;;2090091;28;20393;-58
2023/12/07 01:05:13;;;;;;;55.22;22.48;;;;;;;;;;2090255;28;20033;-58
2023/12/07 01:06:16;;;;;;;54.75;24.73;;;;;;;;;;2090089;28;20036;-59
2023/12/07 01:07:17;;;;;;;53.55;24.90;;;;;;;;;;2090025;28;20033;-58
2023/12/07 01:08:17;;;;;;;56.50;24.95;;;;;;;;;;2090186;28;20051;-58
2023/12/07 01:09:18;;;;;;;56.03;26.00;;;;;;;;;;2090255;28;20033;-58
2023/12/07 01:10:19;;;;;;;55.28;24.83;;;;;;;;;;2089716;28;20052;-58
2023/12/07 01:11:19;;;;;;;53.63;27.02;;;;;;;;;;2090088;28;20389;-59
2023/12/07 01:12:20;;;;;;;54.13;23.80;;;;;;;;;;2090281;28;20505;-58
2023/12/07 01:13:21;;;;;;;53.00;25.98;;;;;;;;;;2090025;28;20071;-58
2023/12/07 01:14:22;;;;;;;54.88;24.55;;;;;;;;;;2090061;28;20052;-59
2023/12/07 01:15:22;;;;;;;45.72;24.42;;;;;;;;;;2090036;28;20071;-60
2023/12/07 01:16:24;;;;;;;55.85;25.75;;;;;;;;;;2089915;28;20053;-61
2023/12/07 01:17:25;;;;;;;50.05;25.48;;;;;;;;;;2090308;28;20025;-61
2023/12/07 01:18:26;;;;;;;50.35;23.25;;;;;;;;;;2090103;28;20033;-60
2023/12/07 01:19:27;;;;;;;51.78;24.08;;;;;;;;;;2090300;28;20389;-60
2023/12/07 01:20:27;;;;;;;51.13;25.38;;;;;;;;;;2090155;28;20076;-58
2023/12/07 01:21:29;;;;;;;55.20;26.67;;;;;;;;;;2090502;28;20461;-59
2023/12/07 01:22:29;;;;;;;53.70;24.83;;;;;;;;;;2089167;28;20048;-59
2023/12/07 01:23:30;;;;;;;45.25;23.58;;;;;;;;;;2089383;28;20378;-60
2023/12/07 01:24:31;;;;;;;49.22;24.02;;;;;;;;;;2105407;28;20529;-60
2023/12/07 01:25:31;;;;;;;51.70;24.67;;;;;;;;;;2105536;28;20040;-61
2023/12/07 01:26:32;;;;;;;50.35;25.13;;;;;;;;;;2090156;28;20064;-61
2023/12/07 01:27:33;;;;;;;50.25;25.30;;;;;;;;;;2091149;28;20049;-59
2023/12/07 01:28:34;;;;;;;48.80;25.88;;;;;;;;;;2091822;28;20052;-61
2023/12/07 01:29:34;;;;;;;48.25;23.98;;;;;;;;;;2091419;28;20036;-61
2023/12/07 01:30:36;;;;;;;48.83;25.05;;;;;;;;;;2091901;28;20045;-59
2023/12/07 01:31:36;;;;;;;49.28;24.17;;;;;;;;;;2091782;28;20045;-58
2023/12/07 01:32:37;;;;;;;46.90;24.52;;;;;;;;;;2091501;28;20493;-59
2023/12/07 01:33:38;;;;;;;43.42;22.30;;;;;;;;;;2091977;28;20044;-61
2023/12/07 01:34:39;;;;;;;47.53;25.88;;;;;;;;;;2091465;28;20045;-59
2023/12/07 01:35:40;;;;;;;50.42;26.02;;;;;;;;;;2091449;28;20087;-61
2023/12/07 01:36:40;;;;;;;44.92;24.98;;;;;;;;;;2091472;28;20049;-59
2023/12/07 01:37:41;;;;;;;47.75;23.58;;;;;;;;;;2091481;28;20055;-59
2023/12/07 01:38:43;;;;;;;42.60;23.40;;;;;;;;;;2091719;28;20477;-59
2023/12/07 01:39:44;;;;;;;43.88;23.90;;;;;;;;;;2091638;28;20074;-59
2023/12/07 01:40:45;;;;;;;41.95;23.17;;;;;;;;;;2091478;28;20036;-59
2023/12/07 01:41:45;;;;;;;42.45;22.40;;;;;;;;;;2091788;28;20056;-59
2023/12/07 01:42:52;;;;;;;42.33;23.15;;;;;;;;;;2091286;28;20045;-59
2023/12/07 01:43:53;;;;;;;37.78;21.25;;;;;;;;;;2091440;28;20039;-59
2023/12/07 01:44:54;;;;;;;39.90;20.80;;;;;;;;;;2091779;28;20519;-58
2023/12/07 01:45:55;;;;;;;38.97;21.85;;;;;;;;;;2091505;28;20029;-59
2023/12/07 01:46:56;;;;;;;35.17;19.48;;;;;;;;;;2090504;28;20045;-58
2023/12/07 01:47:58;;;;;;;38.70;22.20;;;;;;;;;;2099445;28;20416;-58
2023/12/07 01:48:59;;;;;;;37.67;20.15;;;;;;;;;;2106794;28;20055;-59
2023/12/07 01:50:00;;;;;;;35.40;20.50;;;;;;;;;;2090440;28;20041;-59
2023/12/07 01:51:00;;;;;;;40.13;21.27;;;;;;;;;;2090350;28;20432;-59
2023/12/07 01:52:02;;;;;;;34.10;18.95;;;;;;;;;;2091241;28;20424;-59
2023/12/07 01:53:03;;;;;;;33.67;19.70;;;;;;;;;;2091628;28;20029;-59
2023/12/07 01:54:04;;;;;;;36.88;19.90;;;;;;;;;;2091612;28;20053;-59
2023/12/07 01:55:05;;;;;;;30.20;18.15;;;;;;;;;;2091561;28;20111;-59
2023/12/07 01:56:06;;;;;;;31.02;18.40;;;;;;;;;;2091537;28;20040;-59
2023/12/07 01:57:07;;;;;;;35.70;20.25;;;;;;;;;;2091304;28;20033;-59
2023/12/07 01:58:08;;;;;;;37.30;21.33;;;;;;;;;;2090560;28;20073;-59
2023/12/07 01:59:09;;;;;;;29.83;18.15;;;;;;;;;;2090945;28;20397;-59
2023/12/07 02:00:10;;;;;;;29.77;17.70;;;;;;;;;;2091250;28;20044;-59
2023/12/07 02:01:12;;;;;;;30.88;17.10;;;;;;;;;;2090489;28;20075;-58
2023/12/07 02:02:12;;;;;;;30.50;17.40;;;;;;;;;;2090471;28;20492;-58
2023/12/07 02:03:13;;;;;;;31.45;18.02;;;;;;;;;;2090644;28;20063;-58
2023/12/07 02:04:14;;;;;;;35.72;18.85;;;;;;;;;;2090742;28;20033;-59
2023/12/07 02:05:15;;;;;;;33.00;18.13;;;;;;;;;;2091412;28;20060;-59
2023/12/07 02:06:16;;;;;;;32.03;18.08;;;;;;;;;;2091320;28;20056;-59
2023/12/07 02:07:17;;;;;;;28.50;16.17;;;;;;;;;;2090753;28;20421;-59
2023/12/07 02:08:18;;;;;;;31.55;17.90;;;;;;;;;;2091230;28;20059;-59
2023/12/07 02:09:19;;;;;;;29.25;17.35;;;;;;;;;;2091088;28;20040;-58
2023/12/07 02:10:19;;;;;;;31.42;18.00;;;;;;;;;;2090301;28;20045;-58
2023/12/07 02:11:20;;;;;;;32.38;18.27;;;;;;;;;;2090610;28;20400;-59
2023/12/07 02:12:21;;;;;;;37.05;19.60;;;;;;;;;;2091125;28;20041;-59
2023/12/07 02:13:21;;;;;;;34.33;19.05;;;;;;;;;;2091747;28;20022;-60
2023/12/07 02:14:22;;;;;;;31.40;17.55;;;;;;;;;;2091150;28;20029;-59
2023/12/07 02:15:23;;;;;;;33.95;19.73;;;;;;;;;;2091585;28;20040;-59
2023/12/07 02:16:27;;;;;;;35.85;20.13;;;;;;;;;;2091673;28;20045;-59
2023/12/07 02:17:35;;;;;;;31.15;17.27;;;;;;;;;;2090990;28;20045;-59
2023/12/07 02:18:38;;;;;;;33.75;18.50;;;;;;;;;;2090276;28;20448;-59
2023/12/07 02:19:57;;;;;;;39.00;19.55;;;;;;;;;;2090694;28;20048;-59
2023/12/07 02:21:01;;;;;;;38.67;19.60;;;;;;;;;;2090972;28;20028;-58
2023/12/07 02:22:03;;;;;;;35.95;18.75;;;;;;;;;;2090958;28;20044;-58
2023/12/07 02:23:04;;;;;;;38.10;17.95;;;;;;;;;;2090633;28;20519;-59
2023/12/07 02:24:05;;;;;;;34.42;16.52;;;;;;;;;;2081718;28;20041;-59
2023/12/07 02:25:09;;;;;;;33.78;17.08;;;;;;;;;;2082371;28;20041;-59
2023/12/07 02:26:28;;;;;;;32.75;16.67;;;;;;;;;;2099466;28;20464;-59
2023/12/07 02:27:36;;;;;;;32.92;17.70;;;;;;;;;;2101933;28;20047;-59
2023/12/07 02:28:37;;;;;;;32.78;18.83;;;;;;;;;;2091316;28;20049;-60
2023/12/07 02:29:37;;;;;;;32.28;16.92;;;;;;;;;;2090921;28;20033;-59
2023/12/07 02:30:38;;;;;;;33.72;16.30;;;;;;;;;;2091146;28;20492;-60
2023/12/07 02:31:39;;;;;;;30.50;17.08;;;;;;;;;;2091304;28;20028;-59
2023/12/07 02:32:40;;;;;;;33.75;17.73;;;;;;;;;;2090479;28;20045;-59
2023/12/07 02:33:41;;;;;;;33.70;18.38;;;;;;;;;;2090470;28;20500;-59
2023/12/07 02:34:41;;;;;;;34.53;17.42;;;;;;;;;;2091170;28;20037;-59
2023/12/07 02:35:42;;;;;;;32.70;18.13;;;;;;;;;;2090573;28;20056;-58
2023/12/07 02:36:43;;;;;;;32.60;18.40;;;;;;;;;;2090205;28;20044;-58
2023/12/07 02:37:45;;;;;;;35.08;18.17;;;;;;;;;;2090923;28;20044;-59
2023/12/07 02:38:46;;;;;;;37.70;17.65;;;;;;;;;;2090237;28;20392;-59
2023/12/07 02:39:47;;;;;;;29.80;15.70;;;;;;;;;;2089685;28;20045;-60
2023/12/07 02:40:48;;;;;;;34.72;18.38;;;;;;;;;;2098133;28;20041;-59
2023/12/07 02:41:48;;;;;;;29.20;16.88;;;;;;;;;;2106525;28;20559;-59
2023/12/07 02:42:49;;;;;;;30.65;16.75;;;;;;;;;;2090315;28;20483;-59
2023/12/07 02:43:50;;;;;;;31.30;17.45;;;;;;;;;;2090574;28;20036;-59
2023/12/07 02:44:51;;;;;;;30.00;17.45;;;;;;;;;;2090329;28;20045;-59
2023/12/07 02:45:52;;;;;;;32.05;17.55;;;;;;;;;;2090832;28;20021;-59
2023/12/07 02:46:53;;;;;;;28.35;16.73;;;;;;;;;;2090885;28;20036;-59
2023/12/07 02:47:54;;;;;;;30.10;17.27;;;;;;;;;;2090867;28;20029;-59
2023/12/07 02:48:54;;;;;;;28.30;16.95;;;;;;;;;;2091012;28;20028;-59
2023/12/07 02:49:55;;;;;;;31.67;17.17;;;;;;;;;;2089696;28;20044;-59
2023/12/07 02:50:56;;;;;;;28.75;16.00;;;;;;;;;;2089784;28;20496;-60
2023/12/07 02:51:56;;;;;;;30.05;16.55;;;;;;;;;;2091171;28;20082;-59
2023/12/07 02:52:57;;;;;;;29.60;15.63;;;;;;;;;;2090895;28;20139;-59
2023/12/07 02:53:58;;;;;;;27.20;14.45;;;;;;;;;;2090638;28;20041;-59
2023/12/07 02:54:59;;;;;;;27.48;15.20;;;;;;;;;;2090907;28;20097;-59
2023/12/07 02:55:59;;;;;;;26.33;15.57;;;;;;;;;;2091071;28;20025;-59
2023/12/07 02:57:00;;;;;;;28.92;16.30;;;;;;;;;;2091272;28;20055;-59
2023/12/07 02:58:01;;;;;;;30.10;15.63;;;;;;;;;;2089983;28;20465;-59
2023/12/07 02:59:02;;;;;;;28.30;15.05;;;;;;;;;;2090954;28;20067;-59
2023/12/07 03:00:06;;;;;;;27.27;15.68;;;;;;;;;;2091038;28;20047;-58
2023/12/07 03:01:07;;;;;;;29.33;15.68;;;;;;;;;;2090680;28;20048;-58
2023/12/07 03:02:08;;;;;;;27.90;16.67;;;;;;;;;;2091039;28;20063;-58
2023/12/07 03:03:09;;;;;;;29.63;16.83;;;;;;;;;;2091086;28;20055;-60
2023/12/07 03:04:10;;;;;;;27.35;16.92;;;;;;;;;;2090637;28;20037;-59
2023/12/07 03:05:10;;;;;;;28.40;17.00;;;;;;;;;;2090887;28;20055;-59
2023/12/07 03:06:11;;;;;;;26.67;16.73;;;;;;;;;;2090876;28;20055;-59
2023/12/07 03:07:12;;;;;;;32.10;16.55;;;;;;;;;;2090438;28;20037;-58
2023/12/07 03:08:12;;;;;;;27.13;16.40;;;;;;;;;;2090517;28;20125;-59
2023/12/07 03:09:13;;;;;;;31.05;16.65;;;;;;;;;;2090667;28;20040;-58
2023/12/07 03:10:14;;;;;;;27.90;15.18;;;;;;;;;;2090585;28;20076;-60
2023/12/07 03:11:15;;;;;;;27.95;15.98;;;;;;;;;;2090877;28;20503;-58
2023/12/07 03:12:15;;;;;;;29.33;16.25;;;;;;;;;;2090887;28;20036;-58
2023/12/07 03:13:16;;;;;;;27.20;16.48;;;;;;;;;;2090769;28;20056;-58
2023/12/07 03:14:17;;;;;;;25.63;15.43;;;;;;;;;;2090969;28;20032;-58
2023/12/07 03:15:18;;;;;;;28.20;15.55;;;;;;;;;;2090613;28;20120;-58
2023/12/07 03:16:18;;;;;;;29.75;15.82;;;;;;;;;;2090746;28;20049;-59
2023/12/07 03:17:19;;;;;;;31.63;17.65;;;;;;;;;;2090353;28;20064;-59
2023/12/07 03:18:20;;;;;;;27.45;15.68;;;;;;;;;;2089840;28;20070;-59
2023/12/07 03:19:21;;;;;;;28.77;16.27;;;;;;;;;;2090983;28;20033;-58
2023/12/07 03:20:21;;;;;;;32.70;17.45;;;;;;;;;;2090932;28;20101;-58
2023/12/07 03:21:22;;;;;;;30.40;16.85;;;;;;;;;;2090583;28;20079;-58
2023/12/07 03:22:24;;;;;;;32.53;17.25;;;;;;;;;;2090598;28;20108;-58
2023/12/07 03:23:25;;;;;;;30.75;15.60;;;;;;;;;;2090836;28;20037;-58
2023/12/07 03:24:25;;;;;;;31.20;15.95;;;;;;;;;;2090570;28;20078;-58
2023/12/07 03:25:26;;;;;;;33.45;17.00;;;;;;;;;;2090662;28;20049;-59
2023/12/07 03:26:27;;;;;;;28.27;15.90;;;;;;;;;;2090206;28;20021;-61
2023/12/07 03:27:28;;;;;;;34.38;17.23;;;;;;;;;;2090389;28;20037;-59
2023/12/07 03:28:29;;;;;;;29.52;17.92;;;;;;;;;;2090469;28;20188;-58
2023/12/07 03:29:30;;;;;;;28.90;15.85;;;;;;;;;;2090972;28;20518;-59
2023/12/07 03:30:31;;;;;;;28.27;15.95;;;;;;;;;;2090460;28;20358;-59
2023/12/07 03:31:31;;;;;;;31.88;17.27;;;;;;;;;;2090804;28;20040;-59
2023/12/07 03:32:32;;;;;;;29.98;17.45;;;;;;;;;;2090645;28;20045;-59
2023/12/07 03:33:33;;;;;;;29.20;15.93;;;;;;;;;;2090553;28;20048;-59
2023/12/07 03:34:34;;;;;;;30.85;17.60;;;;;;;;;;2090811;28;20040;-59
2023/12/07 03:35:34;;;;;;;34.45;18.20;;;;;;;;;;2090837;28;20045;-60
2023/12/07 03:36:35;;;;;;;29.40;17.10;;;;;;;;;;2090505;28;20428;-59
2023/12/07 03:37:36;;;;;;;34.15;16.83;;;;;;;;;;2090906;28;20037;-60
2023/12/07 03:38:36;;;;;;;28.80;16.70;;;;;;;;;;2090641;28;20068;-61
2023/12/07 03:39:37;;;;;;;31.70;17.65;;;;;;;;;;2090458;28;20048;-59
2023/12/07 03:40:38;;;;;;;33.88;17.45;;;;;;;;;;2090680;28;20041;-59
2023/12/07 03:41:39;;;;;;;26.75;14.85;;;;;;;;;;2090527;28;20048;-58
2023/12/07 03:42:39;;;;;;;29.83;17.20;;;;;;;;;;2090589;28;20032;-59
2023/12/07 03:43:40;;;;;;;30.55;17.67;;;;;;;;;;2090448;28;20052;-60
2023/12/07 03:44:41;;;;;;;34.42;17.63;;;;;;;;;;2090601;28;20496;-59
2023/12/07 03:45:41;;;;;;;29.85;17.60;;;;;;;;;;2090531;28;20033;-58
2023/12/07 03:46:42;;;;;;;33.47;19.25;;;;;;;;;;2090748;28;20051;-58
2023/12/07 03:47:43;;;;;;;33.17;18.10;;;;;;;;;;2090463;28;20037;-59
2023/12/07 03:48:44;;;;;;;29.88;16.73;;;;;;;;;;2090324;28;20045;-59
2023/12/07 03:49:44;;;;;;;31.35;18.27;;;;;;;;;;2090554;28;20033;-59
2023/12/07 03:50:45;;;;;;;29.23;17.20;;;;;;;;;;2090161;28;20110;-59
2023/12/07 03:51:46;;;;;;;34.38;16.85;;;;;;;;;;2090487;28;20106;-58
2023/12/07 03:52:47;;;;;;;32.97;16.63;;;;;;;;;;2090503;28;20469;-60
2023/12/07 03:53:47;;;;;;;32.13;17.20;;;;;;;;;;2090332;28;20048;-60
2023/12/07 03:54:48;;;;;;;29.75;17.60;;;;;;;;;;2090614;28;20041;-61
2023/12/07 03:55:49;;;;;;;29.45;17.00;;;;;;;;;;2090473;28;20049;-61
2023/12/07 03:56:50;;;;;;;32.10;16.98;;;;;;;;;;2090392;28;20041;-58
2023/12/07 03:57:50;;;;;;;32.00;17.50;;;;;;;;;;2089415;28;20037;-58
2023/12/07 03:58:51;;;;;;;30.50;16.05;;;;;;;;;;2090388;28;20044;-60
2023/12/07 03:59:53;;;;;;;34.63;16.75;;;;;;;;;;2089602;28;20111;-59
2023/12/07 04:00:54;;;;;;;35.05;18.17;;;;;;;;;;2089911;28;20041;-58
2023/12/07 04:01:55;;;;;;;29.17;13.90;;;;;;;;;;2090199;28;20052;-60
2023/12/07 04:02:55;;;;;;;35.88;18.10;;;;;;;;;;2090736;28;20116;-58
2023/12/07 04:03:56;;;;;;;33.70;18.35;;;;;;;;;;2090335;28;20029;-61
2023/12/07 04:05:01;;;;;;;31.00;17.05;;;;;;;;;;2090511;28;20040;-59
2023/12/07 04:06:02;;;;;;;29.70;15.77;;;;;;;;;;2090297;28;20033;-59
2023/12/07 04:07:03;;;;;;;32.05;17.40;;;;;;;;;;2090493;28;20377;-59
2023/12/07 04:08:05;;;;;;;32.67;18.15;;;;;;;;;;2090394;28;20068;-58
2023/12/07 04:09:05;;;;;;;31.92;17.38;;;;;;;;;;2089953;28;20047;-59
2023/12/07 04:10:06;;;;;;;31.23;17.73;;;;;;;;;;2089322;28;20041;-59
2023/12/07 04:11:07;;;;;;;30.40;17.73;;;;;;;;;;2090297;28;20033;-58
2023/12/07 04:12:08;;;;;;;32.20;16.88;;;;;;;;;;2090881;28;20069;-59
2023/12/07 04:13:08;;;;;;;31.70;17.27;;;;;;;;;;2090524;28;20037;-59
2023/12/07 04:14:09;;;;;;;35.25;17.50;;;;;;;;;;2090317;28;20374;-59
2023/12/07 04:15:10;;;;;;;31.85;17.98;;;;;;;;;;2090258;28;20041;-59
2023/12/07 04:16:11;;;;;;;30.98;18.08;;;;;;;;;;2090221;28;20121;-59
2023/12/07 04:17:11;;;;;;;33.38;18.70;;;;;;;;;;2090338;28;20028;-59
2023/12/07 04:18:12;;;;;;;34.53;18.08;;;;;;;;;;2090027;28;20033;-59
2023/12/07 04:19:13;;;;;;;33.30;17.63;;;;;;;;;;2089442;28;20052;-59
2023/12/07 04:20:14;;;;;;;34.10;18.50;;;;;;;;;;2090287;28;20049;-59
2023/12/07 04:21:14;;;;;;;33.53;17.80;;;;;;;;;;2090184;28;20045;-59
2023/12/07 04:22:15;;;;;;;35.22;17.45;;;;;;;;;;2090343;28;20033;-60
2023/12/07 04:23:16;;;;;;;36.03;18.85;;;;;;;;;;2090231;28;20029;-59
2023/12/07 04:24:16;;;;;;;34.45;18.70;;;;;;;;;;2090323;28;20086;-59
2023/12/07 04:25:17;;;;;;;34.28;18.60;;;;;;;;;;2090442;28;20033;-59
2023/12/07 04:26:18;;;;;;;33.30;18.35;;;;;;;;;;2090446;28;20049;-59
2023/12/07 04:27:19;;;;;;;37.90;19.13;;;;;;;;;;2089103;28;20047;-59
2023/12/07 04:28:20;;;;;;;33.08;18.88;;;;;;;;;;2089616;28;20084;-59
2023/12/07 04:29:20;;;;;;;33.83;18.13;;;;;;;;;;2090260;28;20037;-59
2023/12/07 04:30:21;;;;;;;39.92;18.45;;;;;;;;;;2090127;28;20029;-59
2023/12/07 04:31:22;;;;;;;36.42;18.30;;;;;;;;;;2090341;28;20044;-59
2023/12/07 04:32:23;;;;;;;35.20;18.70;;;;;;;;;;2090174;28;20033;-59
2023/12/07 04:33:23;;;;;;;37.17;19.73;;;;;;;;;;2089874;28;20045;-59
2023/12/07 04:34:24;;;;;;;32.40;17.60;;;;;;;;;;2090449;28;20033;-59
2023/12/07 04:35:25;;;;;;;37.55;19.23;;;;;;;;;;2090391;28;20033;-60
2023/12/07 04:36:26;;;;;;;33.17;17.75;;;;;;;;;;2090123;28;20365;-59
2023/12/07 04:37:26;;;;;;;40.33;19.67;;;;;;;;;;2090210;28;20457;-59
2023/12/07 04:38:27;;;;;;;34.15;17.55;;;;;;;;;;2090569;28;20041;-58
2023/12/07 04:39:28;;;;;;;33.70;18.00;;;;;;;;;;2090243;28;20143;-59
2023/12/07 04:40:29;;;;;;;37.17;18.40;;;;;;;;;;2090348;28;20033;-59
2023/12/07 04:41:29;;;;;;;35.67;19.02;;;;;;;;;;2090209;28;20033;-59
2023/12/07 04:42:30;;;;;;;30.90;16.25;;;;;;;;;;2090162;28;20029;-59
2023/12/07 04:43:31;;;;;;;36.38;18.90;;;;;;;;;;2089968;28;20045;-59
2023/12/07 04:44:32;;;;;;;34.50;17.40;;;;;;;;;;2090103;28;20056;-59
2023/12/07 04:45:32;;;;;;;30.85;14.68;;;;;;;;;;2089913;28;20425;-59
2023/12/07 04:46:33;;;;;;;34.95;17.58;;;;;;;;;;2089769;28;20473;-61
2023/12/07 04:47:34;;;;;;;33.95;17.95;;;;;;;;;;2090798;28;20074;-59
2023/12/07 04:48:34;;;;;;;25.88;13.48;;;;;;;;;;2090546;28;20477;-59
2023/12/07 04:49:35;;;;;;;26.38;13.20;;;;;;;;;;2090133;28;20048;-58
2023/12/07 04:50:36;;;;;;;32.90;15.45;;;;;;;;;;2090156;28;20037;-59
2023/12/07 04:51:37;;;;;;;30.75;16.15;;;;;;;;;;2090238;28;20052;-59
2023/12/07 04:52:37;;;;;;;37.13;19.73;;;;;;;;;;2090245;28;20090;-59
2023/12/07 04:53:38;;;;;;;37.03;18.48;;;;;;;;;;2090403;28;20067;-59
2023/12/07 04:54:39;;;;;;;38.08;17.45;;;;;;;;;;2090568;28;20025;-59
2023/12/07 04:55:40;;;;;;;37.83;18.73;;;;;;;;;;2089619;28;20077;-59
2023/12/07 04:56:41;;;;;;;36.17;17.92;;;;;;;;;;2089140;28;20057;-59
2023/12/07 04:57:42;;;;;;;34.50;16.70;;;;;;;;;;2089148;28;20036;-59
2023/12/07 04:58:43;;;;;;;37.28;19.60;;;;;;;;;;2090316;28;20048;-59
2023/12/07 04:59:46;;;;;;;38.30;20.13;;;;;;;;;;2090505;28;20041;-59
2023/12/07 05:00:47;;;;;;;43.67;21.70;;;;;;;;;;2089395;28;20068;-60
2023/12/07 05:01:48;;;;;;;40.25;21.00;;;;;;;;;;2088626;28;20171;-60
2023/12/07 05:02:49;;;;;;;41.33;20.48;;;;;;;;;;2091741;28;20457;-59
2023/12/07 05:03:49;;;;;;;42.88;21.33;;;;;;;;;;2091779;28;20154;-60
2023/12/07 05:04:50;;;;;;;42.42;21.23;;;;;;;;;;2092020;28;20021;-60
2023/12/07 05:05:51;;;;;;;40.92;19.30;;;;;;;;;;2091916;28;20024;-60
2023/12/07 05:06:51;;;;;;;38.92;17.75;;;;;;;;;;2091683;28;20053;-60
2023/12/07 05:07:52;;;;;;;44.65;22.15;;;;;;;;;;2091673;28;20053;-59
2023/12/07 05:08:53;;;;;;;40.55;19.80;;;;;;;;;;2091105;28;20048;-59
2023/12/07 05:09:54;;;;;;;42.90;18.27;;;;;;;;;;2090936;28;20041;-59
2023/12/07 05:10:54;;;;;;;44.92;22.55;;;;;;;;;;2091721;28;20033;-59
2023/12/07 05:11:55;;;;;;;40.65;19.02;;;;;;;;;;2091903;28;20048;-60
2023/12/07 05:12:56;;;;;;;45.72;24.00;;;;;;;;;;2091693;28;20037;-59
2023/12/07 05:13:57;;;;;;;43.17;19.67;;;;;;;;;;2091971;28;20028;-58
2023/12/07 05:14:58;;;;;;;46.65;21.73;;;;;;;;;;2091213;28;20032;-59
2023/12/07 05:15:59;;;;;;;44.05;20.60;;;;;;;;;;2090917;28;20119;-61
2023/12/07 05:17:00;;;;;;;46.50;21.15;;;;;;;;;;2090252;28;20041;-61
2023/12/07 05:18:01;;;;;;;44.45;21.00;;;;;;;;;;2090979;28;20123;-61
2023/12/07 05:19:02;;;;;;;20.25;8.82;;;;;;;;;;2091577;28;20025;-61
2023/12/07 05:20:04;;;;;;;48.03;23.65;;;;;;;;;;2091624;28;20032;-61
2023/12/07 05:21:05;;;;;;;47.42;20.50;;;;;;;;;;2091610;28;20033;-61
2023/12/07 05:22:06;;;;;;;45.78;22.13;;;;;;;;;;2091690;28;20116;-61
2023/12/07 05:23:07;;;;;;;53.40;24.40;;;;;;;;;;2091706;28;20036;-61
2023/12/07 05:24:08;;;;;;;47.83;21.42;;;;;;;;;;2091660;28;20028;-61
2023/12/07 05:25:09;;;;;;;40.70;17.90;;;;;;;;;;2091749;28;20373;-62
2023/12/07 05:26:10;;;;;;;45.08;22.23;;;;;;;;;;2091552;28;20045;-62
2023/12/07 05:27:11;;;;;;;53.17;25.15;;;;;;;;;;2091746;28;20047;-62
2023/12/07 05:28:12;;;;;;;50.22;23.92;;;;;;;;;;2090510;28;20076;-62
2023/12/07 05:29:13;;;;;;;49.67;22.67;;;;;;;;;;2091011;28;20400;-62
2023/12/07 05:30:13;;;;;;;54.65;24.92;;;;;;;;;;2091517;28;20044;-61
2023/12/07 05:31:17;;;;;;;43.72;20.55;;;;;;;;;;2091151;28;20056;-61
2023/12/07 05:32:18;;;;;;;48.50;20.98;;;;;;;;;;2092198;28;20068;-63
2023/12/07 05:33:21;;;;;;;47.75;22.48;;;;;;;;;;2092267;28;20124;-62
2023/12/07 05:34:22;;;;;;;45.50;21.25;;;;;;;;;;2092111;28;20108;-63
2023/12/07 05:35:23;;;;;;;48.13;22.23;;;;;;;;;;2092080;28;20148;-61
2023/12/07 05:36:24;;;;;;;46.80;21.38;;;;;;;;;;2091738;28;20102;-61
2023/12/07 05:37:24;;;;;;;50.53;23.42;;;;;;;;;;2092169;28;20045;-62
2023/12/07 05:38:25;;;;;;;51.33;21.67;;;;;;;;;;2092078;28;20044;-61
2023/12/07 05:39:26;;;;;;;49.08;23.33;;;;;;;;;;2092053;28;20025;-62
2023/12/07 05:40:27;;;;;;;49.60;22.63;;;;;;;;;;2091892;28;20393;-61
2023/12/07 05:41:28;;;;;;;49.15;24.50;;;;;;;;;;2091483;28;20049;-62
2023/12/07 05:42:28;;;;;;;48.58;23.35;;;;;;;;;;2090781;28;20075;-61
2023/12/07 05:43:29;;;;;;;43.75;19.58;;;;;;;;;;2090765;28;20059;-63
2023/12/07 05:44:30;;;;;;;46.92;21.65;;;;;;;;;;2091475;28;20052;-62
2023/12/07 05:45:31;;;;;;;43.80;22.48;;;;;;;;;;2092064;28;20052;-62
2023/12/07 05:46:32;;;;;;;48.00;23.30;;;;;;;;;;2091700;28;20040;-62
2023/12/07 05:47:33;;;;;;;47.42;21.02;;;;;;;;;;2091401;28;20473;-62
2023/12/07 05:48:33;;;;;;;51.47;22.67;;;;;;;;;;2091654;28;20032;-62
2023/12/07 05:49:34;;;;;;;48.13;21.95;;;;;;;;;;2091665;28;20053;-62
2023/12/07 05:50:39;;;;;;;50.70;23.60;;;;;;;;;;2091360;28;20060;-61
2023/12/07 05:51:39;;;;;;;55.50;23.45;;;;;;;;;;2091236;28;20033;-62
2023/12/07 05:52:40;;;;;;;46.58;21.35;;;;;;;;;;2091278;28;20032;-62
2023/12/07 05:53:41;;;;;;;51.78;23.52;;;;;;;;;;2091392;28;20036;-62
2023/12/07 05:54:43;;;;;;;37.05;17.23;;;;;;;;;;2090889;28;20496;-62